Airport View

Enter AWOS ICAO identifier for current METAR.

ex. KFNL

KHWO 212334Z 06017G27KT 10SM SCT027 BKN031 OVC050 28/22 A3004 RMK AO2 PK WND 05027/2334 T02830217

21 Sep 2019 23:47

Phone: 954-983-5904

Other Area AWOS: KFLL - KOPF - KFXE - KMIA

TAF AMD KFLL 212127Z 2121/2224 06015G25KT P6SM SCT027 SCT035 BKN060 FM220400 07015G25KT P6SM VCSH SCT025 BKN050 FM221400 08015G25KT P6SM SCT025 BKN050